sensor_id;sensor_type;location;lat;lon;timestamp;pressure;altitude;pressure_sealevel;temperature;humidity
77171;BME280;66144;50.020;14.422;2023-01-25T00:01:46;100698.56;;;3.78;77.97
77171;BME280;66144;50.020;14.422;2023-01-25T00:04:12;100700.34;;;3.78;77.57
77171;BME280;66144;50.020;14.422;2023-01-25T00:06:37;100704.03;;;3.75;77.54
77171;BME280;66144;50.020;14.422;2023-01-25T00:09:03;100694.81;;;3.73;77.00
77171;BME280;66144;50.020;14.422;2023-01-25T00:11:28;100699.16;;;3.72;77.43
77171;BME280;66144;50.020;14.422;2023-01-25T00:13:54;100695.47;;;3.75;77.47
77171;BME280;66144;50.020;14.422;2023-01-25T00:16:20;100702.56;;;3.73;77.59
77171;BME280;66144;50.020;14.422;2023-01-25T00:18:46;100699.03;;;3.74;77.65
77171;BME280;66144;50.020;14.422;2023-01-25T00:21:12;100701.59;;;3.74;78.27
77171;BME280;66144;50.020;14.422;2023-01-25T00:23:38;100697.41;;;3.73;77.75
77171;BME280;66144;50.020;14.422;2023-01-25T00:26:03;100699.03;;;3.74;77.87
77171;BME280;66144;50.020;14.422;2023-01-25T00:28:28;100702.56;;;3.73;77.89
77171;BME280;66144;50.020;14.422;2023-01-25T00:30:57;100698.22;;;3.73;78.04
77171;BME280;66144;50.020;14.422;2023-01-25T00:33:51;100689.50;;;3.74;77.40
77171;BME280;66144;50.020;14.422;2023-01-25T00:38:52;100684.47;;;3.73;78.03
77171;BME280;66144;50.020;14.422;2023-01-25T00:41:18;100684.31;;;3.74;77.88
77171;BME280;66144;50.020;14.422;2023-01-25T00:43:43;100679.97;;;3.75;77.59
77171;BME280;66144;50.020;14.422;2023-01-25T00:46:16;100688.69;;;3.74;77.62
77171;BME280;66144;50.020;14.422;2023-01-25T00:48:41;100684.28;;;3.66;77.57
77171;BME280;66144;50.020;14.422;2023-01-25T00:51:07;100681.53;;;3.68;78.29
77171;BME280;66144;50.020;14.422;2023-01-25T00:53:33;100681.38;;;3.69;77.96
77171;BME280;66144;50.020;14.422;2023-01-25T00:55:59;100671.06;;;3.69;78.13
77171;BME280;66144;50.020;14.422;2023-01-25T00:58:25;100675.09;;;3.72;78.33
77171;BME280;66144;50.020;14.422;2023-01-25T01:00:51;100665.06;;;3.69;78.53
77171;BME280;66144;50.020;14.422;2023-01-25T01:03:16;100676.56;;;3.74;78.03
77171;BME280;66144;50.020;14.422;2023-01-25T01:05:41;100678.03;;;3.77;78.29
77171;BME280;66144;50.020;14.422;2023-01-25T01:08:06;100680.47;;;3.78;77.82
77171;BME280;66144;50.020;14.422;2023-01-25T01:10:32;100681.44;;;3.77;77.03
77171;BME280;66144;50.020;14.422;2023-01-25T01:12:57;100676.28;;;3.77;77.67
77171;BME280;66144;50.020;14.422;2023-01-25T01:15:22;100679.97;;;3.75;77.40
77171;BME280;66144;50.020;14.422;2023-01-25T01:17:48;100676.44;;;3.76;77.61
77171;BME280;66144;50.020;14.422;2023-01-25T01:20:13;100680.63;;;3.77;78.07
77171;BME280;66144;50.020;14.422;2023-01-25T01:22:38;100688.38;;;3.77;77.99
77171;BME280;66144;50.020;14.422;2023-01-25T01:25:04;100683.38;;;3.75;78.15
77171;BME280;66144;50.020;14.422;2023-01-25T01:27:29;100671.25;;;3.76;77.90
77171;BME280;66144;50.020;14.422;2023-01-25T01:29:54;100676.94;;;3.79;77.27
77171;BME280;66144;50.020;14.422;2023-01-25T01:32:20;100676.94;;;3.79;77.68
77171;BME280;66144;50.020;14.422;2023-01-25T01:34:45;100672.56;;;3.80;77.77
77171;BME280;66144;50.020;14.422;2023-01-25T01:37:10;100675.81;;;3.82;77.27
77171;BME280;66144;50.020;14.422;2023-01-25T01:39:36;100676.63;;;3.83;77.42
77171;BME280;66144;50.020;14.422;2023-01-25T01:42:01;100678.56;;;3.80;77.43
77171;BME280;66144;50.020;14.422;2023-01-25T01:44:41;100676.28;;;3.77;77.91
77171;BME280;66144;50.020;14.422;2023-01-25T01:47:13;100676.78;;;3.81;77.27
77171;BME280;66144;50.020;14.422;2023-01-25T01:49:39;100673.38;;;3.80;76.72
77171;BME280;66144;50.020;14.422;2023-01-25T01:52:12;100670.00;;;3.80;77.15
77171;BME280;66144;50.020;14.422;2023-01-25T01:54:54;100666.59;;;3.79;77.35
77171;BME280;66144;50.020;14.422;2023-01-25T01:57:24;100663.84;;;3.81;77.33
77171;BME280;66144;50.020;14.422;2023-01-25T02:00:17;100666.09;;;3.76;77.19
77171;BME280;66144;50.020;14.422;2023-01-25T02:02:47;100664.97;;;3.78;76.99
77171;BME280;66144;50.020;14.422;2023-01-25T02:05:19;100670.94;;;3.79;76.63
77171;BME280;66144;50.020;14.422;2023-01-25T02:07:51;100663.84;;;3.81;76.85
77171;BME280;66144;50.020;14.422;2023-01-25T02:10:18;100666.44;;;3.81;77.10
77171;BME280;66144;50.020;14.422;2023-01-25T02:12:44;100665.78;;;3.79;77.78
77171;BME280;66144;50.020;14.422;2023-01-25T02:15:11;100659.34;;;3.83;77.06
77171;BME280;66144;50.020;14.422;2023-01-25T02:17:37;100658.38;;;3.84;77.17
77171;BME280;66144;50.020;14.422;2023-01-25T02:20:37;100663.56;;;3.84;77.62
77171;BME280;66144;50.020;14.422;2023-01-25T02:25:41;100667.72;;;3.85;77.32
77171;BME280;66144;50.020;14.422;2023-01-25T02:30:32;100656.75;;;3.83;77.60
77171;BME280;66144;50.020;14.422;2023-01-25T02:32:58;100656.91;;;3.81;76.86
77171;BME280;66144;50.020;14.422;2023-01-25T02:35:34;100661.13;;;3.83;77.04
77171;BME280;66144;50.020;14.422;2023-01-25T02:38:00;100658.38;;;3.84;76.83
77171;BME280;66144;50.020;14.422;2023-01-25T02:40:25;100651.59;;;3.83;77.42
77171;BME280;66144;50.020;14.422;2023-01-25T02:42:51;100653.84;;;3.86;76.98
77171;BME280;66144;50.020;14.422;2023-01-25T02:45:16;100651.09;;;3.88;76.40
77171;BME280;66144;50.020;14.422;2023-01-25T02:47:44;100648.69;;;3.86;76.75
77171;BME280;66144;50.020;14.422;2023-01-25T02:50:09;100640.91;;;3.86;76.52
77171;BME280;66144;50.020;14.422;2023-01-25T02:52:35;100650.28;;;3.87;76.77
77171;BME280;66144;50.020;14.422;2023-01-25T02:55:00;100639.31;;;3.85;76.75
77171;BME280;66144;50.020;14.422;2023-01-25T02:57:25;100643.19;;;3.81;76.71
77171;BME280;66144;50.020;14.422;2023-01-25T02:59:51;100631.72;;;3.84;77.37
77171;BME280;66144;50.020;14.422;2023-01-25T03:02:16;100624.59;;;3.86;77.31
77171;BME280;66144;50.020;14.422;2023-01-25T03:04:41;100618.00;;;3.83;77.41
77171;BME280;66144;50.020;14.422;2023-01-25T03:07:07;100616.53;;;3.80;77.62
77171;BME280;66144;50.020;14.422;2023-01-25T03:09:32;100612.47;;;3.78;77.37
77171;BME280;66144;50.020;14.422;2023-01-25T03:11:57;100614.25;;;3.77;77.55
77171;BME280;66144;50.020;14.422;2023-01-25T03:14:23;100601.84;;;3.81;77.35
77171;BME280;66144;50.020;14.422;2023-01-25T03:16:48;100604.94;;;3.85;77.67
77171;BME280;66144;50.020;14.422;2023-01-25T03:19:13;100603.13;;;3.85;77.24
77171;BME280;66144;50.020;14.422;2023-01-25T03:21:39;100602.34;;;3.85;77.00
77171;BME280;66144;50.020;14.422;2023-01-25T03:24:05;100594.41;;;3.86;76.81
77171;BME280;66144;50.020;14.422;2023-01-25T03:26:30;100596.03;;;3.87;76.63
77171;BME280;66144;50.020;14.422;2023-01-25T03:29:15;100593.94;;;3.83;76.88
77171;BME280;66144;50.020;14.422;2023-01-25T03:31:41;100599.09;;;3.83;77.19
77171;BME280;66144;50.020;14.422;2023-01-25T03:34:06;100593.94;;;3.83;77.03
77171;BME280;66144;50.020;14.422;2023-01-25T03:36:31;100597.16;;;3.85;76.72
77171;BME280;66144;50.020;14.422;2023-01-25T03:38:57;100587.28;;;3.80;77.42
77171;BME280;66144;50.020;14.422;2023-01-25T03:41:22;100583.75;;;3.81;76.98
77171;BME280;66144;50.020;14.422;2023-01-25T03:43:47;100586.03;;;3.84;77.33
77171;BME280;66144;50.020;14.422;2023-01-25T03:46:12;100578.44;;;3.83;77.42
77171;BME280;66144;50.020;14.422;2023-01-25T03:48:38;100577.94;;;3.79;76.73
77171;BME280;66144;50.020;14.422;2023-01-25T03:51:03;100576.81;;;3.81;76.68
77171;BME280;66144;50.020;14.422;2023-01-25T03:53:29;100569.50;;;3.77;77.06
77171;BME280;66144;50.020;14.422;2023-01-25T03:56:05;100569.81;;;3.74;77.98
77171;BME280;66144;50.020;14.422;2023-01-25T03:58:35;100569.81;;;3.74;77.74
77171;BME280;66144;50.020;14.422;2023-01-25T04:01:01;100567.59;;;3.79;77.79
77171;BME280;66144;50.020;14.422;2023-01-25T04:03:28;100563.38;;;3.78;77.75
77171;BME280;66144;50.020;14.422;2023-01-25T04:05:54;100567.44;;;3.80;77.12
77171;BME280;66144;50.020;14.422;2023-01-25T04:08:20;100562.41;;;3.79;76.46
77171;BME280;66144;50.020;14.422;2023-01-25T04:10:52;100559.19;;;3.77;77.35
77171;BME280;66144;50.020;14.422;2023-01-25T04:13:19;100557.25;;;3.79;77.11
77171;BME280;66144;50.020;14.422;2023-01-25T04:15:45;100552.09;;;3.79;77.21
77171;BME280;66144;50.020;14.422;2023-01-25T04:18:11;100551.13;;;3.80;76.36
77171;BME280;66144;50.020;14.422;2023-01-25T04:20:36;100560.81;;;3.78;76.75
77171;BME280;66144;50.020;14.422;2023-01-25T04:23:01;100546.25;;;3.77;77.23
77171;BME280;66144;50.020;14.422;2023-01-25T04:25:27;100554.00;;;3.77;77.02
77171;BME280;66144;50.020;14.422;2023-01-25T04:27:52;100549.50;;;3.79;76.98
77171;BME280;66144;50.020;14.422;2023-01-25T04:30:18;100545.28;;;3.78;77.20
77171;BME280;66144;50.020;14.422;2023-01-25T04:32:43;100546.25;;;3.77;77.35
77171;BME280;66144;50.020;14.422;2023-01-25T04:35:09;100544.97;;;3.81;77.50
77171;BME280;66144;50.020;14.422;2023-01-25T04:37:34;100546.59;;;3.82;76.67
77171;BME280;66144;50.020;14.422;2023-01-25T04:39:59;100543.06;;;3.83;76.55
77171;BME280;66144;50.020;14.422;2023-01-25T04:42:25;100539.66;;;3.83;76.80
77171;BME280;66144;50.020;14.422;2023-01-25T04:44:50;100537.88;;;3.83;77.04
77171;BME280;66144;50.020;14.422;2023-01-25T04:47:15;100539.66;;;3.83;76.87
77171;BME280;66144;50.020;14.422;2023-01-25T04:49:41;100545.63;;;3.83;76.87
77171;BME280;66144;50.020;14.422;2023-01-25T04:52:06;100547.56;;;3.81;77.25
77171;BME280;66144;50.020;14.422;2023-01-25T04:54:31;100539.66;;;3.83;77.05
77171;BME280;66144;50.020;14.422;2023-01-25T04:56:57;100543.06;;;3.83;77.14
77171;BME280;66144;50.020;14.422;2023-01-25T04:59:22;100540.63;;;3.81;77.73
77171;BME280;66144;50.020;14.422;2023-01-25T05:01:47;100539.00;;;3.80;77.77
77171;BME280;66144;50.020;14.422;2023-01-25T05:04:12;100544.84;;;3.83;77.62
77171;BME280;66144;50.020;14.422;2023-01-25T05:06:38;100537.53;;;3.78;77.65
77171;BME280;66144;50.020;14.422;2023-01-25T05:09:03;100532.53;;;3.76;77.38
77171;BME280;66144;50.020;14.422;2023-01-25T05:11:29;100527.88;;;3.80;77.62
77171;BME280;66144;50.020;14.422;2023-01-25T05:13:54;100533.84;;;3.80;77.22
77171;BME280;66144;50.020;14.422;2023-01-25T05:16:19;100530.59;;;3.78;77.51
77171;BME280;66144;50.020;14.422;2023-01-25T05:18:45;100537.38;;;3.79;77.49
77171;BME280;66144;50.020;14.422;2023-01-25T05:21:10;100531.41;;;3.79;77.11
77171;BME280;66144;50.020;14.422;2023-01-25T05:23:55;100534.97;;;3.78;77.29
77171;BME280;66144;50.020;14.422;2023-01-25T05:26:21;100527.88;;;3.80;77.34
77171;BME280;66144;50.020;14.422;2023-01-25T05:29:05;100533.34;;;3.77;77.30
77171;BME280;66144;50.020;14.422;2023-01-25T05:31:31;100534.16;;;3.77;77.13
77171;BME280;66144;50.020;14.422;2023-01-25T05:33:56;100535.44;;;3.73;77.15
77171;BME280;66144;50.020;14.422;2023-01-25T05:36:22;100530.09;;;3.75;77.70
77171;BME280;66144;50.020;14.422;2023-01-25T05:38:47;100529.63;;;3.79;77.22
77171;BME280;66144;50.020;14.422;2023-01-25T05:41:12;100532.38;;;3.78;77.26
77171;BME280;66144;50.020;14.422;2023-01-25T05:43:38;100527.38;;;3.76;78.01
77171;BME280;66144;50.020;14.422;2023-01-25T05:46:03;100538.19;;;3.80;78.15
77171;BME280;66144;50.020;14.422;2023-01-25T05:48:29;100534.97;;;3.78;77.88
77171;BME280;66144;50.020;14.422;2023-01-25T05:50:56;100539.81;;;3.81;77.66
77171;BME280;66144;50.020;14.422;2023-01-25T05:53:26;100533.84;;;3.80;77.85
77171;BME280;66144;50.020;14.422;2023-01-25T05:55:52;100533.03;;;3.80;77.76
77171;BME280;66144;50.020;14.422;2023-01-25T05:58:17;100535.44;;;3.73;77.45
77171;BME280;66144;50.020;14.422;2023-01-25T06:00:42;100534.66;;;3.81;77.41
77171;BME280;66144;50.020;14.422;2023-01-25T06:03:08;100534.66;;;3.81;77.98
77171;BME280;66144;50.020;14.422;2023-01-25T06:05:33;100530.44;;;3.80;77.63
77171;BME280;66144;50.020;14.422;2023-01-25T06:07:59;100532.34;;;3.70;77.19
77171;BME280;66144;50.020;14.422;2023-01-25T06:10:24;100532.03;;;3.73;77.55
77171;BME280;66144;50.020;14.422;2023-01-25T06:12:56;100539.00;;;3.80;77.12
77171;BME280;66144;50.020;14.422;2023-01-25T06:15:21;100538.97;;;3.72;78.09
77171;BME280;66144;50.020;14.422;2023-01-25T06:17:46;100540.44;;;3.75;77.11
77171;BME280;66144;50.020;14.422;2023-01-25T06:20:12;100537.84;;;3.75;77.31
77171;BME280;66144;50.020;14.422;2023-01-25T06:22:37;100540.94;;;3.78;76.58
77171;BME280;66144;50.020;14.422;2023-01-25T06:25:02;100536.41;;;3.80;76.87
77171;BME280;66144;50.020;14.422;2023-01-25T06:27:30;100545.91;;;3.72;77.05
77171;BME280;66144;50.020;14.422;2023-01-25T06:29:56;100546.22;;;3.69;76.70
77171;BME280;66144;50.020;14.422;2023-01-25T06:32:21;100536.22;;;3.74;76.91
77171;BME280;66144;50.020;14.422;2023-01-25T06:34:49;100527.03;;;3.71;76.93
77171;BME280;66144;50.020;14.422;2023-01-25T06:37:15;100528.97;;;3.77;77.35
77171;BME280;66144;50.020;14.422;2023-01-25T06:39:40;100529.47;;;3.81;77.43
77171;BME280;66144;50.020;14.422;2023-01-25T06:42:05;100514.78;;;3.81;76.87
77171;BME280;66144;50.020;14.422;2023-01-25T06:44:31;100518.78;;;3.68;76.34
77171;BME280;66144;50.020;14.422;2023-01-25T06:46:56;100509.41;;;3.67;77.07
77171;BME280;66144;50.020;14.422;2023-01-25T06:49:22;100513.13;;;3.64;76.69
77171;BME280;66144;50.020;14.422;2023-01-25T06:51:47;100514.56;;;3.67;76.04
77171;BME280;66144;50.020;14.422;2023-01-25T06:54:12;100508.13;;;3.71;76.55
77171;BME280;66144;50.020;14.422;2023-01-25T06:56:38;100509.59;;;3.73;76.33
77171;BME280;66144;50.020;14.422;2023-01-25T06:59:03;100519.41;;;3.70;76.68
77171;BME280;66144;50.020;14.422;2023-01-25T07:01:28;100509.91;;;3.70;77.07
77171;BME280;66144;50.020;14.422;2023-01-25T07:03:56;100507.97;;;3.72;76.71
77171;BME280;66144;50.020;14.422;2023-01-25T07:06:23;100510.56;;;3.72;76.35
77171;BME280;66144;50.020;14.422;2023-01-25T07:08:49;100507.50;;;3.77;76.75
77171;BME280;66144;50.020;14.422;2023-01-25T07:11:15;100509.28;;;3.76;76.91
77171;BME280;66144;50.020;14.422;2023-01-25T07:13:43;100512.03;;;3.83;76.91
77171;BME280;66144;50.020;14.422;2023-01-25T07:16:17;100510.59;;;3.80;76.71
77171;BME280;66144;50.020;14.422;2023-01-25T07:18:43;100506.53;;;3.78;76.97
77171;BME280;66144;50.020;14.422;2023-01-25T07:21:10;100510.44;;;3.82;77.01
77171;BME280;66144;50.020;14.422;2023-01-25T07:23:36;100511.66;;;3.70;76.26
77171;BME280;66144;50.020;14.422;2023-01-25T07:26:03;100506.84;;;3.75;76.86
77171;BME280;66144;50.020;14.422;2023-01-25T07:28:30;100510.41;;;3.74;76.43
77171;BME280;66144;50.020;14.422;2023-01-25T07:30:56;100510.38;;;3.66;77.17
77171;BME280;66144;50.020;14.422;2023-01-25T07:33:21;100504.72;;;3.70;76.46
77171;BME280;66144;50.020;14.422;2023-01-25T07:35:47;100502.66;;;3.74;76.61
77171;BME280;66144;50.020;14.422;2023-01-25T07:38:15;100505.22;;;3.74;76.25
77171;BME280;66144;50.020;14.422;2023-01-25T07:40:40;100504.91;;;3.77;76.83
77171;BME280;66144;50.020;14.422;2023-01-25T07:43:07;100506.38;;;3.79;76.28
77171;BME280;66144;50.020;14.422;2023-01-25T07:45:32;100505.88;;;3.76;76.17
77171;BME280;66144;50.020;14.422;2023-01-25T07:47:58;100505.53;;;3.63;76.35
77171;BME280;66144;50.020;14.422;2023-01-25T07:50:27;100502.47;;;3.67;76.21
77171;BME280;66144;50.020;14.422;2023-01-25T07:52:53;100507.47;;;3.69;76.75
77171;BME280;66144;50.020;14.422;2023-01-25T07:55:19;100496.31;;;3.60;76.26
77171;BME280;66144;50.020;14.422;2023-01-25T07:57:45;100500.81;;;3.50;76.47
77171;BME280;66144;50.020;14.422;2023-01-25T08:00:11;100494.25;;;3.64;76.74
77171;BME280;66144;50.020;14.422;2023-01-25T08:02:37;100501.19;;;3.71;75.92
77171;BME280;66144;50.020;14.422;2023-01-25T08:05:02;100488.72;;;3.67;76.39
77171;BME280;66144;50.020;14.422;2023-01-25T08:07:28;100503.91;;;3.70;76.60
77171;BME280;66144;50.020;14.422;2023-01-25T08:09:53;100492.13;;;3.67;76.55
77171;BME280;66144;50.020;14.422;2023-01-25T08:12:19;100500.69;;;3.68;76.29
77171;BME280;66144;50.020;14.422;2023-01-25T08:14:44;100490.69;;;3.65;76.68
77171;BME280;66144;50.020;14.422;2023-01-25T08:17:09;100494.88;;;3.66;77.06
77171;BME280;66144;50.020;14.422;2023-01-25T08:19:35;100489.00;;;3.47;77.20
77171;BME280;66144;50.020;14.422;2023-01-25T08:22:00;100487.94;;;3.58;76.13
77171;BME280;66144;50.020;14.422;2023-01-25T08:24:26;100486.50;;;3.64;77.10
77171;BME280;66144;50.020;14.422;2023-01-25T08:26:51;100487.78;;;3.68;76.59
77171;BME280;66144;50.020;14.422;2023-01-25T08:29:16;100481.94;;;3.66;76.13
77171;BME280;66144;50.020;14.422;2023-01-25T08:31:42;100484.03;;;3.46;76.31
77171;BME280;66144;50.020;14.422;2023-01-25T08:34:10;100479.06;;;3.61;76.99
77171;BME280;66144;50.020;14.422;2023-01-25T08:36:35;100477.41;;;3.52;76.50
77171;BME280;66144;50.020;14.422;2023-01-25T08:39:06;100480.13;;;3.50;76.51
77171;BME280;66144;50.020;14.422;2023-01-25T08:41:33;100471.28;;;3.53;76.68
77171;BME280;66144;50.020;14.422;2023-01-25T08:43:59;100462.88;;;3.51;76.18
77171;BME280;66144;50.020;14.422;2023-01-25T08:46:28;100461.91;;;3.52;76.63
77171;BME280;66144;50.020;14.422;2023-01-25T08:48:55;100461.25;;;3.50;76.17
77171;BME280;66144;50.020;14.422;2023-01-25T08:51:21;100453.38;;;3.59;76.03
77171;BME280;66144;50.020;14.422;2023-01-25T08:53:47;100460.44;;;3.49;76.04
77171;BME280;66144;50.020;14.422;2023-01-25T08:56:13;100457.72;;;3.59;76.27
77171;BME280;66144;50.020;14.422;2023-01-25T08:58:42;100459.84;;;3.63;76.16
77171;BME280;66144;50.020;14.422;2023-01-25T09:01:09;100459.69;;;3.73;75.95
77171;BME280;66144;50.020;14.422;2023-01-25T09:03:36;100452.75;;;3.81;75.92
77171;BME280;66144;50.020;14.422;2023-01-25T09:06:02;100444.19;;;3.89;75.50
77171;BME280;66144;50.020;14.422;2023-01-25T09:08:27;100444.19;;;3.89;75.38
77171;BME280;66144;50.020;14.422;2023-01-25T09:10:52;100445.81;;;3.82;75.12
77171;BME280;66144;50.020;14.422;2023-01-25T09:13:17;100440.50;;;3.84;75.27
77171;BME280;66144;50.020;14.422;2023-01-25T09:15:43;100442.25;;;3.91;75.44
77171;BME280;66144;50.020;14.422;2023-01-25T09:18:09;100435.97;;;3.94;75.33
77171;BME280;66144;50.020;14.422;2023-01-25T09:20:36;100431.28;;;3.97;74.76
77171;BME280;66144;50.020;14.422;2023-01-25T09:23:02;100426.59;;;3.93;74.17
77171;BME280;66144;50.020;14.422;2023-01-25T09:25:27;100425.44;;;3.87;75.03
77171;BME280;66144;50.020;14.422;2023-01-25T09:27:52;100422.06;;;3.95;74.67
77171;BME280;66144;50.020;14.422;2023-01-25T09:30:18;100429.00;;;3.86;75.06
77171;BME280;66144;50.020;14.422;2023-01-25T09:32:43;100421.25;;;3.78;75.35
77171;BME280;66144;50.020;14.422;2023-01-25T09:35:08;100429.81;;;3.70;75.06
77171;BME280;66144;50.020;14.422;2023-01-25T09:37:34;100423.03;;;3.69;74.68
77171;BME280;66144;50.020;14.422;2023-01-25T09:39:59;100426.56;;;3.68;75.22
77171;BME280;66144;50.020;14.422;2023-01-25T09:55:43;100416.72;;;3.88;74.40
77171;BME280;66144;50.020;14.422;2023-01-25T09:58:23;100417.06;;;3.93;74.20
77171;BME280;66144;50.020;14.422;2023-01-25T10:00:58;100414.16;;;3.88;74.42
77171;BME280;66144;50.020;14.422;2023-01-25T10:05:58;100410.94;;;3.78;74.61
77171;BME280;66144;50.020;14.422;2023-01-25T10:08:35;100412.38;;;3.97;74.90
77171;BME280;66144;50.020;14.422;2023-01-25T10:13:43;100403.00;;;4.04;74.78
77171;BME280;66144;50.020;14.422;2023-01-25T10:22:16;100382.50;;;4.02;73.01
77171;BME280;66144;50.020;14.422;2023-01-25T10:30:34;100375.38;;;3.88;73.61
77171;BME280;66144;50.020;14.422;2023-01-25T10:33:14;100374.09;;;3.92;73.51
77171;BME280;66144;50.020;14.422;2023-01-25T10:35:45;100373.78;;;4.03;73.98
77171;BME280;66144;50.020;14.422;2023-01-25T10:38:26;100364.84;;;4.06;72.95
77171;BME280;66144;50.020;14.422;2023-01-25T10:40:58;100360.00;;;4.11;73.30
77171;BME280;66144;50.020;14.422;2023-01-25T10:43:26;100363.25;;;4.13;73.23
77171;BME280;66144;50.020;14.422;2023-01-25T10:45:52;100366.47;;;4.15;72.72
77171;BME280;66144;50.020;14.422;2023-01-25T10:48:27;100356.44;;;4.20;72.36
77171;BME280;66144;50.020;14.422;2023-01-25T10:50:55;100357.25;;;4.12;71.92
77171;BME280;66144;50.020;14.422;2023-01-25T10:58:33;100357.53;;;4.26;72.23
77171;BME280;66144;50.020;14.422;2023-01-25T11:00:59;100348.31;;;4.31;71.71
77171;BME280;66144;50.020;14.422;2023-01-25T11:03:33;100350.75;;;4.25;72.02
77171;BME280;66144;50.020;14.422;2023-01-25T11:05:59;100343.00;;;4.25;71.15
77171;BME280;66144;50.020;14.422;2023-01-25T11:08:25;100336.03;;;4.25;70.99
77171;BME280;66144;50.020;14.422;2023-01-25T11:10:57;100337.66;;;4.34;71.29
77171;BME280;66144;50.020;14.422;2023-01-25T11:13:28;100331.84;;;4.32;70.32
77171;BME280;66144;50.020;14.422;2023-01-25T11:18:30;100325.53;;;4.35;70.49
77171;BME280;66144;50.020;14.422;2023-01-25T11:21:06;100319.38;;;4.36;71.76
77171;BME280;66144;50.020;14.422;2023-01-25T11:23:32;100324.72;;;4.34;70.79
77171;BME280;66144;50.020;14.422;2023-01-25T11:26:17;100321.53;;;4.16;70.99
77171;BME280;66144;50.020;14.422;2023-01-25T11:28:44;100323.00;;;4.19;71.01
77171;BME280;66144;50.020;14.422;2023-01-25T11:31:22;100315.19;;;4.27;71.06
77171;BME280;66144;50.020;14.422;2023-01-25T11:33:48;100308.63;;;4.08;70.92
77171;BME280;66144;50.020;14.422;2023-01-25T11:51:50;100292.47;;;4.14;71.27
77171;BME280;66144;50.020;14.422;2023-01-25T11:55:02;100278.19;;;4.26;71.24
77171;BME280;66144;50.020;14.422;2023-01-25T12:13:59;100228.19;;;4.42;70.25
77171;BME280;66144;50.020;14.422;2023-01-25T12:16:43;100224.25;;;4.46;70.24
77171;BME280;66144;50.020;14.422;2023-01-25T12:29:53;100192.00;;;4.34;70.18
77171;BME280;66144;50.020;14.422;2023-01-25T12:32:40;100175.53;;;4.35;69.64
77171;BME280;66144;50.020;14.422;2023-01-25T12:38:02;100169.22;;;4.37;69.97
77171;BME280;66144;50.020;14.422;2023-01-25T12:40:49;100162.25;;;4.38;69.37
77171;BME280;66144;50.020;14.422;2023-01-25T12:43:20;100157.34;;;4.43;69.40
77171;BME280;66144;50.020;14.422;2023-01-25T12:45:50;100161.75;;;4.42;70.05
77171;BME280;66144;50.020;14.422;2023-01-25T12:50:57;100156.41;;;4.13;69.78
77171;BME280;66144;50.020;14.422;2023-01-25T12:53:26;100153.31;;;4.18;69.56
77171;BME280;66144;50.020;14.422;2023-01-25T12:55:54;100153.31;;;4.18;69.29
77171;BME280;66144;50.020;14.422;2023-01-25T12:58:41;100144.25;;;4.22;70.15
77171;BME280;66144;50.020;14.422;2023-01-25T13:06:19;100131.25;;;4.30;68.57
77171;BME280;66144;50.020;14.422;2023-01-25T13:09:05;100125.28;;;4.29;69.43
77171;BME280;66144;50.020;14.422;2023-01-25T13:11:37;100120.91;;;4.30;68.84
77171;BME280;66144;50.020;14.422;2023-01-25T13:21:45;100108.19;;;4.43;68.89
77171;BME280;66144;50.020;14.422;2023-01-25T13:24:25;100104.72;;;4.36;69.56
77171;BME280;66144;50.020;14.422;2023-01-25T13:31:58;100096.53;;;4.47;69.45
77171;BME280;66144;50.020;14.422;2023-01-25T13:44:39;100086.03;;;4.26;69.47
77171;BME280;66144;50.020;14.422;2023-01-25T13:47:16;100079.44;;;4.23;69.79
77171;BME280;66144;50.020;14.422;2023-01-25T13:49:48;100079.38;;;4.31;69.79
77171;BME280;66144;50.020;14.422;2023-01-25T13:52:18;100077.03;;;4.22;70.12
77171;BME280;66144;50.020;14.422;2023-01-25T13:54:45;100074.81;;;4.10;69.85
77171;BME280;66144;50.020;14.422;2023-01-25T13:57:13;100072.19;;;3.96;70.24
77171;BME280;66144;50.020;14.422;2023-01-25T13:59:39;100070.91;;;3.92;70.77
77171;BME280;66144;50.020;14.422;2023-01-25T14:02:10;100073.56;;;4.06;70.79
77171;BME280;66144;50.020;14.422;2023-01-25T14:04:37;100068.22;;;4.08;70.77
77171;BME280;66144;50.020;14.422;2023-01-25T14:07:03;100074.03;;;4.10;70.39
77171;BME280;66144;50.020;14.422;2023-01-25T14:09:34;100083.09;;;4.06;71.43
77171;BME280;66144;50.020;14.422;2023-01-25T14:12:01;100075.59;;;3.88;70.76
77171;BME280;66144;50.020;14.422;2023-01-25T14:14:33;100074.69;;;3.81;70.80
77171;BME280;66144;50.020;14.422;2023-01-25T14:17:15;100077.38;;;3.88;70.97
77171;BME280;66144;50.020;14.422;2023-01-25T14:19:50;100076.03;;;4.00;71.18
77171;BME280;66144;50.020;14.422;2023-01-25T14:22:25;100067.03;;;3.88;71.37
77171;BME280;66144;50.020;14.422;2023-01-25T14:27:29;100060.09;;;3.88;71.26
77171;BME280;66144;50.020;14.422;2023-01-25T14:29:55;100057.34;;;3.90;71.40
77171;BME280;66144;50.020;14.422;2023-01-25T14:32:20;100061.06;;;3.87;71.28
77171;BME280;66144;50.020;14.422;2023-01-25T14:34:48;100064.59;;;3.94;71.50
77171;BME280;66144;50.020;14.422;2023-01-25T14:37:17;100054.59;;;3.91;71.67
77171;BME280;66144;50.020;14.422;2023-01-25T14:39:44;100047.59;;;4.00;71.18
77171;BME280;66144;50.020;14.422;2023-01-25T14:42:10;100052.34;;;3.88;71.11
77171;BME280;66144;50.020;14.422;2023-01-25T14:44:35;100054.28;;;3.63;71.71
77171;BME280;66144;50.020;14.422;2023-01-25T14:49:48;100059.47;;;3.86;71.91
77171;BME280;66144;50.020;14.422;2023-01-25T14:52:16;100052.88;;;3.84;71.58
77171;BME280;66144;50.020;14.422;2023-01-25T14:54:49;100052.06;;;3.83;71.28
77171;BME280;66144;50.020;14.422;2023-01-25T14:57:28;100047.25;;;3.80;71.46
77171;BME280;66144;50.020;14.422;2023-01-25T14:59:56;100043.44;;;3.91;71.08
77171;BME280;66144;50.020;14.422;2023-01-25T15:02:31;100049.75;;;3.88;71.40